• Join FlightAware (Why Join?)
  • Login
  • US Flag 
02:35PM EST


 

Airport Tracker/Info


-or-


 

Live Flight TrackerFlight Track Log ✈ AAY842 ✈ 28-Mar-2014 ✈ KPIE - KSYR

Flight Track Log - Related Links

Times and Time Zones

All times are in EDT time to prevent confusion due to time zone crossing. See the AAY842 flight status page for this flight to view local times or setup timezone preferences in your user account.

Time Position Orientation Groundspeed Altitude Reporting Facility
EDT Latitude Longitude Course Direction KTS MPH feet Rate Location/Type
03:57PM 27.9000 -82.6833 180° South 164 189 700  Level Tampa TRACON
03:58PM 27.8500 -82.6833 180° South 196 226 2,600 2,160 Climbing Tampa TRACON
03:59PM 27.8167 -82.7333 233° Southwest 238 274 5,100 2,460 Climbing Tampa TRACON
04:01PM 27.8642 -82.8456 296° West 233 268 9,800 2,040 Climbing Jacksonville Center
04:02PM 27.9517 -82.8128 18° North 237 273 11,100 1,980 Climbing Jacksonville Center
04:08PM 28.5515 -82.7224 357° North 424 488 23,200 2,040 Climbing FlightAware ADS-B (KMCO)
04:08PM 28.6507 -82.7282 356° North 423 487 24,100 1,320 Climbing FlightAware ADS-B (KMCO)
04:12PM 29.1747 -82.7684 357° North 454 522 29,500 1,200 Climbing FlightAware ADS-B (KMCO)
04:13PM 29.2904 -82.7748 358° North 461 531 30,400 1,020 Climbing FlightAware ADS-B (KMCO)
04:14PM 29.4357 -82.7764 North 472 543 31,600 1,320 Climbing FlightAware ADS-B (KMCO)
04:16PM 29.5886 -82.7443 10° North 461 531 33,400 1,200 Climbing FlightAware ADS-B (KMCO)
04:17PM 29.7795 -82.7051 10° North 461 531 34,900 960 Climbing FlightAware ADS-B (KMCO)
04:18PM 29.8488 -82.6905 10° North 457 526 35,500 1,080 Climbing FlightAware ADS-B (KMCO)
04:18PM 29.9455 -82.6702 10° North 450 518 36,400 780 Climbing FlightAware ADS-B (KMCO)
04:19PM 30.0154 -82.6557 10° North 454 522 36,600 360 Climbing FlightAware ADS-B (KMCO)
04:20PM 30.1400 -82.6297 10° North 457 526 37,000 180 Climbing FlightAware ADS-B (KMCO)
04:21PM 30.2242 -82.6120 10° North 452 520 37,000  Level FlightAware ADS-B (KMCO)
04:21PM 30.3143 -82.5931 10° North 455 524 37,000  Level FlightAware ADS-B (KMCO)
04:22PM 30.3892 -82.5774 10° North 458 527 37,000  Level FlightAware ADS-B (KMCO)
04:23PM 30.4703 -82.5603 11° North 461 531 37,000  Level FlightAware ADS-B (KMCO)
04:23PM 30.5354 -82.5411 17° North 470 541 37,000  Level FlightAware ADS-B (KMCO)
04:24PM 30.6171 -82.5088 19° North 472 543 37,000  Level FlightAware ADS-B (KMCO)
04:24PM 30.6812 -82.4836 19° North 463 533 37,000  Level FlightAware ADS-B (KMCO)
04:25PM 30.7945 -82.4389 19° North 453 521 37,000 -300 Level FlightAware ADS-B (KMCO)
04:26PM 30.8461 -82.4208 19° North 456 525 36,600 -840 Descending Jacksonville Center
04:27PM 30.9669 -82.3717 19° North 456 525 35,700 -840 Descending Jacksonville Center
04:28PM 31.0900 -82.3225 19° North 456 525 35,000 -360 Descending Jacksonville Center
04:29PM 31.2233 -82.2731 18° North 462 532 35,000  Level Jacksonville Center
04:30PM 31.3506 -82.2236 18° North 462 532 35,000  Level Jacksonville Center
04:31PM 31.4775 -82.1714 19° North 468 539 35,000  Level Jacksonville Center
04:32PM 31.6047 -82.1217 18° North 470 541 35,000  Level Jacksonville Center
04:33PM 31.7275 -82.0669 21° North 465 535 35,000  Level Jacksonville Center
04:34PM 31.8525 -82.0194 18° North 472 543 35,000  Level Jacksonville Center
04:35PM 31.9669 -81.9717 20° North 466 536 35,100  Climbing Jacksonville Center
04:36PM 32.1042 -81.9092 21° North 471 542 35,000 -60 Descending Jacksonville Center
04:37PM 32.2167 -81.8564 22° Northeast 471 542 35,000  Level Jacksonville Center
04:38PM 32.3539 -81.7908 22° Northeast 471 542 35,000  Level Jacksonville Center
04:39PM 32.4764 -81.7303 23° Northeast 478 550 35,000  Level Jacksonville Center
04:40PM 32.5928 -81.6769 21° North 483 556 35,000  Level Jacksonville Center
04:41PM 32.7319 -81.6083 23° Northeast 488 562 35,000  Level Jacksonville Center
04:42PM 32.8544 -81.5472 23° Northeast 488 562 35,000  Level Jacksonville Center
04:43PM 32.9792 -81.4886 22° Northeast 483 556 35,100 480 Climbing Jacksonville Center
04:44PM 33.1058 -81.4269 22° Northeast 483 556 36,000 660 Climbing Jacksonville Center
04:45PM 33.2053 -81.3783 22° Northeast 483 556 36,500 420 Climbing Jacksonville Center
04:51PM 33.9503 -81.0090 22° Northeast 497 572 38,800 360 Climbing FlightAware ADS-B (KCDN)
04:51PM 34.0454 -80.9637 22° Northeast 500 575 39,000 120 Climbing FlightAware ADS-B (KCDN)
04:52PM 34.1388 -80.9188 22° Northeast 499 574 39,000  Level FlightAware ADS-B (KCDN)
04:53PM 34.2348 -80.8723 22° Northeast 497 572 39,000  Level FlightAware ADS-B (KCDN)
04:53PM 34.3069 -80.8375 22° Northeast 498 573 39,000  Level FlightAware ADS-B (KCDN)
04:54PM 34.4198 -80.7828 22° Northeast 500 575 39,000  Level FlightAware ADS-B (KCDN)
04:56PM 34.6340 -80.6784 22° Northeast 498 573 39,000  Level FlightAware ADS-B (KCDN)
04:57PM 34.8061 -80.5958 22° Northeast 487 560 39,000  Level Atlanta Center
04:58PM 34.9317 -80.5350 22° Northeast 487 560 39,000  Level Atlanta Center
04:59PM 35.0572 -80.4714 23° Northeast 487 560 39,000  Level Atlanta Center
05:00PM 35.1744 -80.4156 21° North 487 560 39,000  Level Atlanta Center
05:01PM 35.2997 -80.3514 23° Northeast 487 560 39,000  Level Atlanta Center
05:02PM 35.4272 -80.2897 22° Northeast 482 555 39,000  Level Atlanta Center
05:04PM 35.6914 -80.1519 23° Northeast 484 557 39,000  Level Washington Center
05:05PM 35.8192 -80.0875 22° Northeast 484 557 39,000  Level Washington Center
05:06PM 35.9614 -80.0239 20° North 490 564 39,000  Level Washington Center
05:07PM 36.0892 -79.9489 25° Northeast 490 564 39,000  Level Washington Center
05:08PM 36.2097 -79.8525 33° Northeast 499 574 39,000  Level Washington Center
05:09PM 36.3192 -79.7631 33° Northeast 519 597 39,000  Level Washington Center
05:10PM 36.4500 -79.6589 33° Northeast 519 597 39,000  Level Washington Center
05:11PM 36.5722 -79.5619 32° Northeast 519 597 39,000  Level Washington Center
05:12PM 36.6922 -79.4669 32° Northeast 514 592 39,000  Level Washington Center
05:13PM 36.8014 -79.3792 33° Northeast 514 592 39,000  Level Washington Center
05:14PM 36.9214 -79.2811 33° Northeast 514 592 39,000  Level Washington Center
05:15PM 37.0528 -79.2119 23° Northeast 508 585 39,000  Level Washington Center
05:16PM 37.1947 -79.1378 23° Northeast 495 570 39,000  Level Washington Center
05:17PM 37.3242 -79.0681 23° Northeast 500 575 39,000  Level Washington Center
05:23PM 38.1135 -78.7698 25° Northeast 508 585 39,000  Level FlightAware ADS-B (KCHO)
05:24PM 38.1785 -78.7314 25° Northeast 507 583 39,000  Level FlightAware ADS-B (KCHO)
05:25PM 38.2836 -78.6694 25° Northeast 507 583 39,000  Level FlightAware ADS-B (KCHO)
05:26PM 38.3957 -78.6030 25° Northeast 506 582 39,000  Level FlightAware ADS-B (KCHO)
05:27PM 38.5238 -78.5269 25° Northeast 507 583 39,000  Level FlightAware ADS-B (KCHO)
05:27PM 38.6014 -78.4847 25° Northeast 489 563 39,000  Level Washington Center
05:28PM 38.7306 -78.4044 26° Northeast 495 570 39,000  Level Washington Center
05:29PM 38.8594 -78.3269 25° Northeast 495 570 39,000 -600 Level Washington Center
05:35PM 39.6315 -77.8743 20° North 506 582 35,000 -780 Descending FlightAware ADS-B
05:36PM 39.7760 -77.8044 21° North 506 582 33,800 -780 Descending FlightAware ADS-B
05:38PM 39.9935 -77.6991 20° North 502 578 33,000 -420 Descending FlightAware ADS-B (KPHL)
05:42PM 40.5075 -77.4475 21° North 479 551 31,400 -780 Descending FlightAware ADS-B (KPHL)
05:44PM 40.8054 -77.2996 21° North 457 526 28,000 -1,020 Descending FlightAware ADS-B (KPHL)
05:51PM 41.4880 -76.9610 17° North 412 474 23,000 -720 Descending FlightAware ADS-B (VOML / IXE)
05:51PM 41.5700 -76.9260 17° North 411 473 23,000  Level FlightAware ADS-B (VOML / IXE)
05:52PM 41.6320 -76.8990 18° North 406 467 23,000 -120 Level FlightAware ADS-B (VOML / IXE)
05:53PM 41.6990 -76.8690 18° North 402 463 22,900 -960 Descending FlightAware ADS-B (VOML / IXE)
05:53PM 41.7640 -76.8400 18° North 395 455 21,900 -1,800 Descending FlightAware ADS-B (VOML / IXE)
05:54PM 41.8260 -76.8120 18° North 383 441 20,800 -1,620 Descending FlightAware ADS-B (VOML / IXE)
05:55PM 41.9040 -76.7780 18° North 383 441 19,700 -1,200 Descending FlightAware ADS-B (VOML / IXE)
05:56PM 42.0010 -76.7340 18° North 373 429 18,700 -1,020 Descending FlightAware ADS-B (VOML / IXE)
05:56PM 42.0680 -76.6960 42° Northeast 392 451 17,900 -1,800 Descending FlightAware ADS-B (VOML / IXE)
05:58PM 42.2350 -76.5420 19° North 372 428 14,000 -1,980 Descending FlightAware ADS-B (VOML / IXE)
06:00PM 42.3520 -76.4870 18° North 366 421 11,800 -1,380 Descending FlightAware ADS-B (VOML / IXE)
06:00PM 42.4340 -76.4500 18° North 346 398 11,200 -420 Descending FlightAware ADS-B (VOML / IXE)
06:01PM 42.5000 -76.4190 19° North 349 402 11,200  Level FlightAware ADS-B (VOML / IXE)
06:02PM 42.5570 -76.3920 19° North 346 398 11,200 -300 Level FlightAware ADS-B (VOML / IXE)
06:02PM 42.6122 -76.3667 19° North 346 398 10,800 -840 Descending Boston Center
06:03PM 42.6894 -76.3269 21° North 327 376 9,900 -1,140 Descending Boston Center
06:03PM 42.6967 -76.3244 14° North 324 373 9,700 -1,620 Descending Boston Center
06:04PM 42.7533 -76.2658 37° Northeast 323 372 8,500 -1,380 Descending Boston Center
06:05PM 42.7617 -76.2525 50° Northeast 323 372 8,300 -1,500 Descending Boston Center
06:05PM 42.8083 -76.1700 52° Northeast 321 369 7,000 -1,500 Descending Boston Center
06:06PM 42.8167 -76.1561 51° Northeast 324 373 6,800 -1,800 Descending Boston Center
06:06PM 42.8606 -76.0761 53° Northeast 315 362 5,200 -2,100 Descending Boston Center
06:07PM 42.8817 -76.0444 48° Northeast 318 366 4,700 -900 Descending Boston Center
06:07PM 42.9178 -75.9775 54° Northeast 294 338 4,300 -600 Descending Boston Center
06:08PM 42.9328 -75.9572 45° Northeast 308 354 4,100 -300 Descending Boston Center
06:08PM 42.9653 -75.8992 53° Northeast 261 300 4,000 -120 Descending Boston Center
06:09PM 42.9792 -75.8767 50° Northeast 286 329 4,000 -120 Level Boston Center
06:09PM 43.0233 -75.8592 16° North 229 264 3,900 -420 Descending Boston Center
06:10PM 43.0397 -75.8597 359° North 251 289 3,600 -840 Descending Boston Center
06:10PM 43.0794 -75.8678 352° North 198 228 3,100 -600 Descending Boston Center
06:11PM 43.0925 -75.8744 340° North 216 249 3,000 -720 Descending Boston Center
06:11PM 43.1056 -75.9167 293° West 151 174 2,400 -840 Descending Boston Center
06:12PM 43.1125 -75.9278 311° West 181 208 2,200 -480 Descending Boston Center
06:12PM 43.1133 -75.9600 272° West 125 144 2,000 -240 Descending Boston Center
06:13PM 43.1147 -75.9753 277° West 149 171 2,000 -420 Level Boston Center
06:13PM 43.1114 -76.0089 262° West 130 150 1,600 -600 Descending Boston Center
06:14PM 43.1108 -76.0256 267° West 137 158 1,400 -600 Descending Boston Center
06:14PM 43.1094 -76.0581 267° West 131 151 1,000 -840 Descending Boston Center
06:15PM 43.1097 -76.0839 271° West 134 154 600 -780 Descending Boston Center